sensor_id;sensor_type;location;lat;lon;timestamp;P1;durP1;ratioP1;P2;durP2;ratioP2
2177;SDS011;1095;50.992;6.798;2023-08-01T00:00:28;1.55;;;1.40;;
2177;SDS011;1095;50.992;6.798;2023-08-01T00:03:01;1.10;;;1.00;;
2177;SDS011;1095;50.992;6.798;2023-08-01T00:05:44;3.38;;;1.33;;
2177;SDS011;1095;50.992;6.798;2023-08-01T00:08:20;2.90;;;1.38;;
2177;SDS011;1095;50.992;6.798;2023-08-01T00:10:52;2.10;;;1.02;;
2177;SDS011;1095;50.992;6.798;2023-08-01T00:13:19;1.02;;;0.80;;
2177;SDS011;1095;50.992;6.798;2023-08-01T00:15:53;2.33;;;1.20;;
2177;SDS011;1095;50.992;6.798;2023-08-01T00:18:33;1.35;;;0.80;;
2177;SDS011;1095;50.992;6.798;2023-08-01T00:21:00;4.32;;;1.30;;
2177;SDS011;1095;50.992;6.798;2023-08-01T00:23:30;2.20;;;1.27;;
2177;SDS011;1095;50.992;6.798;2023-08-01T00:25:58;6.30;;;1.98;;
2177;SDS011;1095;50.992;6.798;2023-08-01T00:28:25;4.43;;;1.63;;
2177;SDS011;1095;50.992;6.798;2023-08-01T00:31:00;3.97;;;1.05;;
2177;SDS011;1095;50.992;6.798;2023-08-01T00:33:28;2.35;;;1.05;;
2177;SDS011;1095;50.992;6.798;2023-08-01T00:35:54;3.28;;;1.10;;
2177;SDS011;1095;50.992;6.798;2023-08-01T00:38:21;3.38;;;1.15;;
2177;SDS011;1095;50.992;6.798;2023-08-01T00:40:47;6.30;;;1.38;;
2177;SDS011;1095;50.992;6.798;2023-08-01T00:43:16;6.32;;;1.70;;
2177;SDS011;1095;50.992;6.798;2023-08-01T00:45:43;1.45;;;0.93;;
2177;SDS011;1095;50.992;6.798;2023-08-01T00:48:11;4.38;;;1.20;;
2177;SDS011;1095;50.992;6.798;2023-08-01T00:50:38;2.05;;;0.80;;
2177;SDS011;1095;50.992;6.798;2023-08-01T00:53:05;6.40;;;1.20;;
2177;SDS011;1095;50.992;6.798;2023-08-01T00:55:32;2.58;;;0.90;;
2177;SDS011;1095;50.992;6.798;2023-08-01T00:58:01;4.05;;;1.33;;
2177;SDS011;1095;50.992;6.798;2023-08-01T01:00:29;3.35;;;1.23;;
2177;SDS011;1095;50.992;6.798;2023-08-01T01:02:56;4.70;;;1.25;;
2177;SDS011;1095;50.992;6.798;2023-08-01T01:05:23;3.42;;;1.33;;
2177;SDS011;1095;50.992;6.798;2023-08-01T01:07:51;2.75;;;1.38;;
2177;SDS011;1095;50.992;6.798;2023-08-01T01:10:18;3.13;;;1.13;;
2177;SDS011;1095;50.992;6.798;2023-08-01T01:12:45;1.00;;;0.75;;
2177;SDS011;1095;50.992;6.798;2023-08-01T01:15:12;3.00;;;1.08;;
2177;SDS011;1095;50.992;6.798;2023-08-01T01:17:40;1.50;;;0.80;;
2177;SDS011;1095;50.992;6.798;2023-08-01T01:20:07;5.20;;;3.25;;
2177;SDS011;1095;50.992;6.798;2023-08-01T01:22:35;4.55;;;1.80;;
2177;SDS011;1095;50.992;6.798;2023-08-01T01:25:04;1.73;;;1.35;;
2177;SDS011;1095;50.992;6.798;2023-08-01T01:27:33;1.15;;;0.65;;
2177;SDS011;1095;50.992;6.798;2023-08-01T01:30:01;0.60;;;0.57;;
2177;SDS011;1095;50.992;6.798;2023-08-01T01:32:29;1.65;;;0.88;;
2177;SDS011;1095;50.992;6.798;2023-08-01T01:34:56;2.58;;;1.20;;
2177;SDS011;1095;50.992;6.798;2023-08-01T01:37:22;5.57;;;1.92;;
2177;SDS011;1095;50.992;6.798;2023-08-01T01:39:50;4.28;;;2.80;;
2177;SDS011;1095;50.992;6.798;2023-08-01T01:42:17;7.40;;;5.30;;
2177;SDS011;1095;50.992;6.798;2023-08-01T01:44:44;8.20;;;6.18;;
2177;SDS011;1095;50.992;6.798;2023-08-01T01:47:10;6.60;;;4.65;;
2177;SDS011;1095;50.992;6.798;2023-08-01T01:49:37;5.75;;;3.70;;
2177;SDS011;1095;50.992;6.798;2023-08-01T01:52:04;6.10;;;3.75;;
2177;SDS011;1095;50.992;6.798;2023-08-01T01:54:31;5.97;;;3.63;;
2177;SDS011;1095;50.992;6.798;2023-08-01T01:56:58;10.60;;;6.30;;
2177;SDS011;1095;50.992;6.798;2023-08-01T01:59:25;7.88;;;4.85;;
2177;SDS011;1095;50.992;6.798;2023-08-01T02:01:52;8.48;;;6.00;;
2177;SDS011;1095;50.992;6.798;2023-08-01T02:04:18;10.88;;;8.27;;
2177;SDS011;1095;50.992;6.798;2023-08-01T02:06:45;7.85;;;5.25;;
2177;SDS011;1095;50.992;6.798;2023-08-01T02:09:11;6.40;;;4.22;;
2177;SDS011;1095;50.992;6.798;2023-08-01T02:11:38;6.75;;;4.25;;
2177;SDS011;1095;50.992;6.798;2023-08-01T02:14:06;5.30;;;4.25;;
2177;SDS011;1095;50.992;6.798;2023-08-01T02:16:33;4.50;;;3.33;;
2177;SDS011;1095;50.992;6.798;2023-08-01T02:18:59;4.45;;;3.60;;
2177;SDS011;1095;50.992;6.798;2023-08-01T02:21:26;4.95;;;3.63;;
2177;SDS011;1095;50.992;6.798;2023-08-01T02:23:52;6.32;;;3.60;;
2177;SDS011;1095;50.992;6.798;2023-08-01T02:26:19;4.88;;;3.53;;
2177;SDS011;1095;50.992;6.798;2023-08-01T02:28:47;4.68;;;3.92;;
2177;SDS011;1095;50.992;6.798;2023-08-01T02:31:15;4.80;;;3.20;;
2177;SDS011;1095;50.992;6.798;2023-08-01T02:33:42;3.58;;;3.28;;
2177;SDS011;1095;50.992;6.798;2023-08-01T02:36:09;2.90;;;2.58;;
2177;SDS011;1095;50.992;6.798;2023-08-01T02:38:36;5.07;;;3.97;;
2177;SDS011;1095;50.992;6.798;2023-08-01T02:41:02;5.00;;;4.45;;
2177;SDS011;1095;50.992;6.798;2023-08-01T02:43:29;5.70;;;3.55;;
2177;SDS011;1095;50.992;6.798;2023-08-01T02:45:55;6.53;;;4.20;;
2177;SDS011;1095;50.992;6.798;2023-08-01T02:48:26;5.55;;;4.05;;
2177;SDS011;1095;50.992;6.798;2023-08-01T02:50:52;3.60;;;3.30;;
2177;SDS011;1095;50.992;6.798;2023-08-01T02:53:19;5.45;;;4.90;;
2177;SDS011;1095;50.992;6.798;2023-08-01T02:55:45;6.07;;;5.00;;
2177;SDS011;1095;50.992;6.798;2023-08-01T02:58:12;7.68;;;6.03;;
2177;SDS011;1095;50.992;6.798;2023-08-01T03:00:39;5.78;;;5.05;;
2177;SDS011;1095;50.992;6.798;2023-08-01T03:03:05;6.57;;;5.60;;
2177;SDS011;1095;50.992;6.798;2023-08-01T03:05:33;9.07;;;7.03;;
2177;SDS011;1095;50.992;6.798;2023-08-01T03:08:02;6.75;;;5.95;;
2177;SDS011;1095;50.992;6.798;2023-08-01T03:10:29;7.80;;;6.35;;
2177;SDS011;1095;50.992;6.798;2023-08-01T03:12:55;8.18;;;5.68;;
2177;SDS011;1095;50.992;6.798;2023-08-01T03:15:22;7.07;;;5.00;;
2177;SDS011;1095;50.992;6.798;2023-08-01T03:17:49;6.43;;;5.20;;
2177;SDS011;1095;50.992;6.798;2023-08-01T03:20:15;7.93;;;6.15;;
2177;SDS011;1095;50.992;6.798;2023-08-01T03:22:43;13.20;;;6.95;;
2177;SDS011;1095;50.992;6.798;2023-08-01T03:25:10;8.60;;;7.03;;
2177;SDS011;1095;50.992;6.798;2023-08-01T03:27:36;15.40;;;9.00;;
2177;SDS011;1095;50.992;6.798;2023-08-01T03:30:03;13.70;;;8.77;;
2177;SDS011;1095;50.992;6.798;2023-08-01T03:32:33;11.80;;;8.77;;
2177;SDS011;1095;50.992;6.798;2023-08-01T03:35:00;11.32;;;8.57;;
2177;SDS011;1095;50.992;6.798;2023-08-01T03:37:27;14.63;;;8.38;;
2177;SDS011;1095;50.992;6.798;2023-08-01T03:39:55;9.50;;;7.90;;
2177;SDS011;1095;50.992;6.798;2023-08-01T03:42:22;12.63;;;8.27;;
2177;SDS011;1095;50.992;6.798;2023-08-01T03:44:49;13.20;;;8.60;;
2177;SDS011;1095;50.992;6.798;2023-08-01T03:47:15;11.48;;;8.85;;
2177;SDS011;1095;50.992;6.798;2023-08-01T03:49:42;13.95;;;9.77;;
2177;SDS011;1095;50.992;6.798;2023-08-01T03:52:08;12.15;;;9.77;;
2177;SDS011;1095;50.992;6.798;2023-08-01T03:54:35;13.57;;;10.32;;
2177;SDS011;1095;50.992;6.798;2023-08-01T03:57:03;14.98;;;9.98;;
2177;SDS011;1095;50.992;6.798;2023-08-01T03:59:30;12.45;;;9.23;;
2177;SDS011;1095;50.992;6.798;2023-08-01T04:02:00;14.85;;;10.38;;
2177;SDS011;1095;50.992;6.798;2023-08-01T04:04:26;13.27;;;9.73;;
2177;SDS011;1095;50.992;6.798;2023-08-01T04:06:53;14.63;;;10.38;;
2177;SDS011;1095;50.992;6.798;2023-08-01T04:09:20;16.10;;;10.82;;
2177;SDS011;1095;50.992;6.798;2023-08-01T04:11:46;14.65;;;10.07;;
2177;SDS011;1095;50.992;6.798;2023-08-01T04:14:14;16.58;;;10.05;;
2177;SDS011;1095;50.992;6.798;2023-08-01T04:16:41;12.55;;;9.90;;
2177;SDS011;1095;50.992;6.798;2023-08-01T04:19:07;15.88;;;10.80;;
2177;SDS011;1095;50.992;6.798;2023-08-01T04:21:34;14.75;;;10.30;;
2177;SDS011;1095;50.992;6.798;2023-08-01T04:24:01;17.35;;;10.23;;
2177;SDS011;1095;50.992;6.798;2023-08-01T04:26:28;14.13;;;10.65;;
2177;SDS011;1095;50.992;6.798;2023-08-01T04:28:54;21.55;;;10.63;;
2177;SDS011;1095;50.992;6.798;2023-08-01T04:31:22;15.27;;;12.27;;
2177;SDS011;1095;50.992;6.798;2023-08-01T04:33:49;17.40;;;12.45;;
2177;SDS011;1095;50.992;6.798;2023-08-01T04:36:15;17.85;;;11.98;;
2177;SDS011;1095;50.992;6.798;2023-08-01T04:38:42;18.75;;;11.98;;
2177;SDS011;1095;50.992;6.798;2023-08-01T04:41:09;23.05;;;12.18;;
2177;SDS011;1095;50.992;6.798;2023-08-01T04:43:35;16.48;;;11.48;;
2177;SDS011;1095;50.992;6.798;2023-08-01T04:46:02;16.52;;;11.25;;
2177;SDS011;1095;50.992;6.798;2023-08-01T04:48:30;16.83;;;10.05;;
2177;SDS011;1095;50.992;6.798;2023-08-01T04:50:56;20.90;;;10.00;;
2177;SDS011;1095;50.992;6.798;2023-08-01T04:53:23;15.60;;;9.63;;
2177;SDS011;1095;50.992;6.798;2023-08-01T04:55:50;16.58;;;10.38;;
2177;SDS011;1095;50.992;6.798;2023-08-01T04:58:17;22.17;;;11.05;;
2177;SDS011;1095;50.992;6.798;2023-08-01T05:00:43;15.05;;;10.15;;
2177;SDS011;1095;50.992;6.798;2023-08-01T05:03:10;13.65;;;10.07;;
2177;SDS011;1095;50.992;6.798;2023-08-01T05:05:38;15.38;;;9.98;;
2177;SDS011;1095;50.992;6.798;2023-08-01T05:08:04;19.35;;;9.57;;
2177;SDS011;1095;50.992;6.798;2023-08-01T05:10:31;19.20;;;9.27;;
2177;SDS011;1095;50.992;6.798;2023-08-01T05:12:58;13.38;;;9.45;;
2177;SDS011;1095;50.992;6.798;2023-08-01T05:15:24;14.23;;;8.82;;
2177;SDS011;1095;50.992;6.798;2023-08-01T05:17:52;15.02;;;9.52;;
2177;SDS011;1095;50.992;6.798;2023-08-01T05:20:18;17.38;;;10.13;;
2177;SDS011;1095;50.992;6.798;2023-08-01T05:22:46;13.55;;;8.93;;
2177;SDS011;1095;50.992;6.798;2023-08-01T05:25:13;17.42;;;8.90;;
2177;SDS011;1095;50.992;6.798;2023-08-01T05:27:40;13.65;;;8.18;;
2177;SDS011;1095;50.992;6.798;2023-08-01T05:30:07;13.82;;;8.77;;
2177;SDS011;1095;50.992;6.798;2023-08-01T05:32:34;13.77;;;8.18;;
2177;SDS011;1095;50.992;6.798;2023-08-01T05:35:01;12.20;;;7.38;;
2177;SDS011;1095;50.992;6.798;2023-08-01T05:37:27;11.90;;;6.78;;
2177;SDS011;1095;50.992;6.798;2023-08-01T05:39:55;11.75;;;7.63;;
2177;SDS011;1095;50.992;6.798;2023-08-01T05:42:22;10.25;;;6.18;;
2177;SDS011;1095;50.992;6.798;2023-08-01T05:44:48;9.40;;;6.32;;
2177;SDS011;1095;50.992;6.798;2023-08-01T05:47:15;11.02;;;6.70;;
2177;SDS011;1095;50.992;6.798;2023-08-01T05:49:42;11.20;;;7.03;;
2177;SDS011;1095;50.992;6.798;2023-08-01T05:52:08;10.07;;;6.80;;
2177;SDS011;1095;50.992;6.798;2023-08-01T05:54:35;11.88;;;7.15;;
2177;SDS011;1095;50.992;6.798;2023-08-01T05:57:03;8.70;;;6.47;;
2177;SDS011;1095;50.992;6.798;2023-08-01T05:59:31;11.75;;;6.18;;
2177;SDS011;1095;50.992;6.798;2023-08-01T06:01:57;12.20;;;6.70;;
2177;SDS011;1095;50.992;6.798;2023-08-01T06:04:24;10.38;;;6.60;;
2177;SDS011;1095;50.992;6.798;2023-08-01T06:06:51;13.60;;;8.13;;
2177;SDS011;1095;50.992;6.798;2023-08-01T06:09:17;12.15;;;6.50;;
2177;SDS011;1095;50.992;6.798;2023-08-01T06:11:44;12.32;;;6.75;;
2177;SDS011;1095;50.992;6.798;2023-08-01T06:14:13;11.80;;;7.65;;
2177;SDS011;1095;50.992;6.798;2023-08-01T06:16:40;13.48;;;7.20;;
2177;SDS011;1095;50.992;6.798;2023-08-01T06:19:12;13.48;;;7.05;;
2177;SDS011;1095;50.992;6.798;2023-08-01T06:21:45;14.48;;;7.35;;
2177;SDS011;1095;50.992;6.798;2023-08-01T06:24:12;14.57;;;7.93;;
2177;SDS011;1095;50.992;6.798;2023-08-01T06:26:40;14.35;;;7.72;;
2177;SDS011;1095;50.992;6.798;2023-08-01T06:29:12;15.82;;;8.23;;
2177;SDS011;1095;50.992;6.798;2023-08-01T06:31:40;13.68;;;7.68;;
2177;SDS011;1095;50.992;6.798;2023-08-01T06:34:07;13.10;;;8.18;;
2177;SDS011;1095;50.992;6.798;2023-08-01T06:36:37;13.02;;;6.90;;
2177;SDS011;1095;50.992;6.798;2023-08-01T06:39:06;12.00;;;7.10;;
2177;SDS011;1095;50.992;6.798;2023-08-01T06:41:34;15.20;;;7.32;;
2177;SDS011;1095;50.992;6.798;2023-08-01T06:44:06;9.57;;;7.10;;
2177;SDS011;1095;50.992;6.798;2023-08-01T06:46:35;11.77;;;6.80;;
2177;SDS011;1095;50.992;6.798;2023-08-01T06:49:02;13.88;;;7.40;;
2177;SDS011;1095;50.992;6.798;2023-08-01T06:51:37;14.35;;;7.38;;
2177;SDS011;1095;50.992;6.798;2023-08-01T06:54:09;12.25;;;7.10;;
2177;SDS011;1095;50.992;6.798;2023-08-01T06:56:43;16.35;;;7.63;;
2177;SDS011;1095;50.992;6.798;2023-08-01T06:59:13;10.55;;;7.45;;
2177;SDS011;1095;50.992;6.798;2023-08-01T07:01:45;14.20;;;7.80;;
2177;SDS011;1095;50.992;6.798;2023-08-01T07:04:15;10.48;;;7.35;;
2177;SDS011;1095;50.992;6.798;2023-08-01T07:06:52;10.65;;;7.53;;
2177;SDS011;1095;50.992;6.798;2023-08-01T07:09:22;12.18;;;7.40;;
2177;SDS011;1095;50.992;6.798;2023-08-01T07:11:59;19.33;;;8.07;;
2177;SDS011;1095;50.992;6.798;2023-08-01T07:14:42;13.82;;;8.05;;
2177;SDS011;1095;50.992;6.798;2023-08-01T07:17:17;14.60;;;8.00;;
2177;SDS011;1095;50.992;6.798;2023-08-01T07:19:47;12.43;;;7.35;;
2177;SDS011;1095;50.992;6.798;2023-08-01T07:22:19;17.25;;;7.38;;
2177;SDS011;1095;50.992;6.798;2023-08-01T07:25:00;11.15;;;6.97;;
2177;SDS011;1095;50.992;6.798;2023-08-01T07:27:41;12.98;;;7.45;;
2177;SDS011;1095;50.992;6.798;2023-08-01T07:30:27;10.95;;;6.93;;
2177;SDS011;1095;50.992;6.798;2023-08-01T07:33:10;11.02;;;6.63;;
2177;SDS011;1095;50.992;6.798;2023-08-01T07:35:57;10.43;;;6.43;;
2177;SDS011;1095;50.992;6.798;2023-08-01T07:38:32;13.93;;;6.95;;
2177;SDS011;1095;50.992;6.798;2023-08-01T07:41:04;9.00;;;6.57;;
2177;SDS011;1095;50.992;6.798;2023-08-01T07:43:38;9.43;;;6.28;;
2177;SDS011;1095;50.992;6.798;2023-08-01T07:46:05;10.93;;;7.03;;
2177;SDS011;1095;50.992;6.798;2023-08-01T07:49:04;11.02;;;6.95;;
2177;SDS011;1095;50.992;6.798;2023-08-01T07:51:31;13.50;;;6.82;;
2177;SDS011;1095;50.992;6.798;2023-08-01T07:53:58;10.30;;;6.32;;
2177;SDS011;1095;50.992;6.798;2023-08-01T07:56:25;12.75;;;6.70;;
2177;SDS011;1095;50.992;6.798;2023-08-01T07:58:52;12.23;;;6.63;;
2177;SDS011;1095;50.992;6.798;2023-08-01T08:01:19;12.52;;;6.82;;
2177;SDS011;1095;50.992;6.798;2023-08-01T08:03:45;15.00;;;7.15;;
2177;SDS011;1095;50.992;6.798;2023-08-01T08:06:13;12.93;;;6.80;;
2177;SDS011;1095;50.992;6.798;2023-08-01T08:08:40;10.73;;;6.22;;
2177;SDS011;1095;50.992;6.798;2023-08-01T08:11:06;10.95;;;6.15;;
2177;SDS011;1095;50.992;6.798;2023-08-01T08:13:33;15.95;;;6.13;;
2177;SDS011;1095;50.992;6.798;2023-08-01T08:15:59;10.18;;;6.35;;
2177;SDS011;1095;50.992;6.798;2023-08-01T08:18:26;9.38;;;5.82;;
2177;SDS011;1095;50.992;6.798;2023-08-01T08:20:56;14.43;;;7.70;;
2177;SDS011;1095;50.992;6.798;2023-08-01T08:23:24;12.95;;;7.05;;
2177;SDS011;1095;50.992;6.798;2023-08-01T08:25:50;14.57;;;7.15;;
2177;SDS011;1095;50.992;6.798;2023-08-01T08:28:26;9.27;;;6.43;;
2177;SDS011;1095;50.992;6.798;2023-08-01T08:30:54;15.07;;;7.00;;
2177;SDS011;1095;50.992;6.798;2023-08-01T08:33:21;12.57;;;7.22;;
2177;SDS011;1095;50.992;6.798;2023-08-01T08:35:47;13.43;;;6.90;;
2177;SDS011;1095;50.992;6.798;2023-08-01T08:38:14;11.88;;;6.53;;
2177;SDS011;1095;50.992;6.798;2023-08-01T08:40:43;11.77;;;6.30;;
2177;SDS011;1095;50.992;6.798;2023-08-01T08:43:18;13.30;;;6.28;;
2177;SDS011;1095;50.992;6.798;2023-08-01T08:45:45;11.13;;;6.50;;
2177;SDS011;1095;50.992;6.798;2023-08-01T08:48:15;10.52;;;6.30;;
2177;SDS011;1095;50.992;6.798;2023-08-01T08:50:44;11.60;;;6.38;;
2177;SDS011;1095;50.992;6.798;2023-08-01T08:53:12;12.38;;;6.40;;
2177;SDS011;1095;50.992;6.798;2023-08-01T08:55:39;8.85;;;6.45;;
2177;SDS011;1095;50.992;6.798;2023-08-01T08:58:08;9.98;;;6.43;;
2177;SDS011;1095;50.992;6.798;2023-08-01T09:00:35;10.15;;;5.32;;
2177;SDS011;1095;50.992;6.798;2023-08-01T09:03:02;12.90;;;5.68;;
2177;SDS011;1095;50.992;6.798;2023-08-01T09:05:31;12.45;;;5.88;;
2177;SDS011;1095;50.992;6.798;2023-08-01T09:08:01;10.23;;;5.80;;
2177;SDS011;1095;50.992;6.798;2023-08-01T09:10:33;10.90;;;5.65;;
2177;SDS011;1095;50.992;6.798;2023-08-01T09:13:00;12.85;;;6.18;;
2177;SDS011;1095;50.992;6.798;2023-08-01T09:15:29;9.40;;;5.53;;
2177;SDS011;1095;50.992;6.798;2023-08-01T09:17:55;12.80;;;5.85;;
2177;SDS011;1095;50.992;6.798;2023-08-01T09:20:26;7.45;;;5.57;;
2177;SDS011;1095;50.992;6.798;2023-08-01T09:22:52;8.90;;;5.40;;
2177;SDS011;1095;50.992;6.798;2023-08-01T09:25:19;13.00;;;6.10;;
2177;SDS011;1095;50.992;6.798;2023-08-01T09:27:46;14.57;;;5.97;;
2177;SDS011;1095;50.992;6.798;2023-08-01T09:30:13;9.55;;;5.75;;
2177;SDS011;1095;50.992;6.798;2023-08-01T09:32:52;11.13;;;6.00;;
2177;SDS011;1095;50.992;6.798;2023-08-01T09:35:18;9.35;;;6.10;;
2177;SDS011;1095;50.992;6.798;2023-08-01T09:37:46;8.65;;;5.60;;
2177;SDS011;1095;50.992;6.798;2023-08-01T09:40:13;7.95;;;5.50;;
2177;SDS011;1095;50.992;6.798;2023-08-01T09:42:40;9.85;;;5.40;;
2177;SDS011;1095;50.992;6.798;2023-08-01T09:45:11;10.45;;;5.90;;
2177;SDS011;1095;50.992;6.798;2023-08-01T09:47:39;12.93;;;5.33;;
2177;SDS011;1095;50.992;6.798;2023-08-01T09:50:08;8.15;;;5.10;;
2177;SDS011;1095;50.992;6.798;2023-08-01T09:52:36;10.60;;;5.10;;
2177;SDS011;1095;50.992;6.798;2023-08-01T09:55:03;9.25;;;5.07;;
2177;SDS011;1095;50.992;6.798;2023-08-01T09:57:30;9.73;;;5.20;;
2177;SDS011;1095;50.992;6.798;2023-08-01T09:59:57;7.75;;;5.03;;
2177;SDS011;1095;50.992;6.798;2023-08-01T10:02:25;13.32;;;5.30;;
2177;SDS011;1095;50.992;6.798;2023-08-01T10:04:54;7.80;;;5.75;;
2177;SDS011;1095;50.992;6.798;2023-08-01T10:07:25;8.38;;;5.18;;
2177;SDS011;1095;50.992;6.798;2023-08-01T10:09:57;10.23;;;5.20;;
2177;SDS011;1095;50.992;6.798;2023-08-01T10:12:24;12.73;;;5.70;;
2177;SDS011;1095;50.992;6.798;2023-08-01T10:14:53;7.88;;;5.45;;
2177;SDS011;1095;50.992;6.798;2023-08-01T10:17:21;8.65;;;5.13;;
2177;SDS011;1095;50.992;6.798;2023-08-01T10:19:48;9.07;;;5.38;;
2177;SDS011;1095;50.992;6.798;2023-08-01T10:22:16;8.88;;;5.50;;
2177;SDS011;1095;50.992;6.798;2023-08-01T10:24:44;7.65;;;5.20;;
2177;SDS011;1095;50.992;6.798;2023-08-01T10:27:13;7.65;;;5.53;;
2177;SDS011;1095;50.992;6.798;2023-08-01T10:29:40;8.18;;;5.10;;
2177;SDS011;1095;50.992;6.798;2023-08-01T10:32:07;9.77;;;5.05;;
2177;SDS011;1095;50.992;6.798;2023-08-01T10:34:34;10.27;;;5.88;;
2177;SDS011;1095;50.992;6.798;2023-08-01T10:37:01;8.90;;;6.22;;
2177;SDS011;1095;50.992;6.798;2023-08-01T10:39:28;10.10;;;5.80;;
2177;SDS011;1095;50.992;6.798;2023-08-01T10:42:00;10.15;;;5.10;;
2177;SDS011;1095;50.992;6.798;2023-08-01T10:44:28;9.50;;;4.95;;
2177;SDS011;1095;50.992;6.798;2023-08-01T10:46:57;8.70;;;4.80;;
2177;SDS011;1095;50.992;6.798;2023-08-01T10:49:35;10.65;;;4.68;;
2177;SDS011;1095;50.992;6.798;2023-08-01T10:52:03;7.38;;;4.30;;
2177;SDS011;1095;50.992;6.798;2023-08-01T10:54:31;7.00;;;5.13;;
2177;SDS011;1095;50.992;6.798;2023-08-01T10:57:00;8.80;;;4.57;;
2177;SDS011;1095;50.992;6.798;2023-08-01T10:59:27;7.22;;;4.43;;
2177;SDS011;1095;50.992;6.798;2023-08-01T11:01:57;7.10;;;4.35;;
2177;SDS011;1095;50.992;6.798;2023-08-01T11:04:25;9.40;;;4.70;;
2177;SDS011;1095;50.992;6.798;2023-08-01T11:06:55;8.25;;;4.40;;
2177;SDS011;1095;50.992;6.798;2023-08-01T11:09:22;10.40;;;4.40;;
2177;SDS011;1095;50.992;6.798;2023-08-01T11:11:50;9.40;;;4.30;;
2177;SDS011;1095;50.992;6.798;2023-08-01T11:14:20;7.47;;;4.50;;
2177;SDS011;1095;50.992;6.798;2023-08-01T11:16:48;6.95;;;4.72;;
2177;SDS011;1095;50.992;6.798;2023-08-01T11:19:19;11.32;;;4.43;;
2177;SDS011;1095;50.992;6.798;2023-08-01T11:21:47;8.57;;;4.17;;
2177;SDS011;1095;50.992;6.798;2023-08-01T11:24:14;7.65;;;4.78;;
2177;SDS011;1095;50.992;6.798;2023-08-01T11:26:41;6.55;;;4.47;;
2177;SDS011;1095;50.992;6.798;2023-08-01T11:29:11;6.70;;;4.30;;
2177;SDS011;1095;50.992;6.798;2023-08-01T11:31:40;8.55;;;4.45;;
2177;SDS011;1095;50.992;6.798;2023-08-01T11:34:07;7.32;;;4.43;;
2177;SDS011;1095;50.992;6.798;2023-08-01T11:36:35;7.45;;;4.57;;
2177;SDS011;1095;50.992;6.798;2023-08-01T11:39:03;10.25;;;4.65;;
2177;SDS011;1095;50.992;6.798;2023-08-01T11:41:30;6.97;;;4.97;;
2177;SDS011;1095;50.992;6.798;2023-08-01T11:44:01;6.95;;;4.78;;
2177;SDS011;1095;50.992;6.798;2023-08-01T11:46:30;8.35;;;4.72;;
2177;SDS011;1095;50.992;6.798;2023-08-01T11:48:59;6.00;;;4.20;;
2177;SDS011;1095;50.992;6.798;2023-08-01T11:51:26;9.70;;;4.40;;
2177;SDS011;1095;50.992;6.798;2023-08-01T11:54:00;9.05;;;4.40;;
2177;SDS011;1095;50.992;6.798;2023-08-01T11:56:27;8.82;;;4.38;;
2177;SDS011;1095;50.992;6.798;2023-08-01T11:58:56;7.55;;;4.13;;
2177;SDS011;1095;50.992;6.798;2023-08-01T12:01:23;10.90;;;4.40;;
2177;SDS011;1095;50.992;6.798;2023-08-01T12:03:51;6.82;;;4.00;;
2177;SDS011;1095;50.992;6.798;2023-08-01T12:06:21;8.88;;;4.65;;
2177;SDS011;1095;50.992;6.798;2023-08-01T12:08:50;11.75;;;4.57;;
2177;SDS011;1095;50.992;6.798;2023-08-01T12:11:18;7.53;;;4.10;;
2177;SDS011;1095;50.992;6.798;2023-08-01T12:13:46;7.68;;;4.30;;
2177;SDS011;1095;50.992;6.798;2023-08-01T12:16:13;8.10;;;4.13;;
2177;SDS011;1095;50.992;6.798;2023-08-01T12:18:46;8.95;;;4.00;;
2177;SDS011;1095;50.992;6.798;2023-08-01T12:21:15;6.97;;;3.50;;
2177;SDS011;1095;50.992;6.798;2023-08-01T12:23:46;6.68;;;3.97;;
2177;SDS011;1095;50.992;6.798;2023-08-01T12:26:12;6.40;;;4.07;;
2177;SDS011;1095;50.992;6.798;2023-08-01T12:28:41;7.90;;;4.10;;
2177;SDS011;1095;50.992;6.798;2023-08-01T12:31:08;9.57;;;4.32;;
2177;SDS011;1095;50.992;6.798;2023-08-01T12:33:35;9.10;;;4.10;;
2177;SDS011;1095;50.992;6.798;2023-08-01T12:36:02;7.43;;;3.90;;
2177;SDS011;1095;50.992;6.798;2023-08-01T12:38:28;7.35;;;4.18;;
2177;SDS011;1095;50.992;6.798;2023-08-01T12:40:56;8.73;;;5.03;;
2177;SDS011;1095;50.992;6.798;2023-08-01T12:43:23;9.18;;;4.85;;
2177;SDS011;1095;50.992;6.798;2023-08-01T12:45:50;12.82;;;5.70;;
2177;SDS011;1095;50.992;6.798;2023-08-01T12:48:20;11.68;;;5.22;;
2177;SDS011;1095;50.992;6.798;2023-08-01T12:50:47;7.20;;;5.10;;
2177;SDS011;1095;50.992;6.798;2023-08-01T12:53:14;9.63;;;5.05;;
2177;SDS011;1095;50.992;6.798;2023-08-01T12:55:42;8.65;;;4.38;;
2177;SDS011;1095;50.992;6.798;2023-08-01T12:58:12;6.93;;;4.53;;
2177;SDS011;1095;50.992;6.798;2023-08-01T13:00:48;8.43;;;4.68;;
2177;SDS011;1095;50.992;6.798;2023-08-01T13:03:16;10.75;;;4.60;;
2177;SDS011;1095;50.992;6.798;2023-08-01T13:05:49;8.18;;;4.88;;
2177;SDS011;1095;50.992;6.798;2023-08-01T13:08:26;7.25;;;4.47;;
2177;SDS011;1095;50.992;6.798;2023-08-01T13:11:09;9.95;;;4.85;;
2177;SDS011;1095;50.992;6.798;2023-08-01T13:13:49;7.95;;;4.75;;
2177;SDS011;1095;50.992;6.798;2023-08-01T13:16:17;10.20;;;5.10;;
2177;SDS011;1095;50.992;6.798;2023-08-01T13:18:44;11.68;;;5.07;;
2177;SDS011;1095;50.992;6.798;2023-08-01T13:21:16;9.50;;;4.68;;
2177;SDS011;1095;50.992;6.798;2023-08-01T13:23:42;6.50;;;4.53;;
2177;SDS011;1095;50.992;6.798;2023-08-01T13:26:13;7.35;;;4.35;;
2177;SDS011;1095;50.992;6.798;2023-08-01T13:28:40;6.80;;;4.60;;
2177;SDS011;1095;50.992;6.798;2023-08-01T13:31:08;9.13;;;4.60;;
2177;SDS011;1095;50.992;6.798;2023-08-01T13:33:34;9.68;;;4.85;;
2177;SDS011;1095;50.992;6.798;2023-08-01T13:36:01;10.23;;;4.68;;
2177;SDS011;1095;50.992;6.798;2023-08-01T13:38:29;9.82;;;4.95;;
2177;SDS011;1095;50.992;6.798;2023-08-01T13:40:58;7.78;;;4.97;;
2177;SDS011;1095;50.992;6.798;2023-08-01T13:43:25;8.80;;;5.50;;
2177;SDS011;1095;50.992;6.798;2023-08-01T13:45:52;9.20;;;5.25;;
2177;SDS011;1095;50.992;6.798;2023-08-01T13:48:20;10.38;;;5.43;;
2177;SDS011;1095;50.992;6.798;2023-08-01T13:50:47;7.75;;;5.00;;
2177;SDS011;1095;50.992;6.798;2023-08-01T13:53:13;6.07;;;4.97;;
2177;SDS011;1095;50.992;6.798;2023-08-01T13:55:41;10.35;;;5.20;;
2177;SDS011;1095;50.992;6.798;2023-08-01T13:58:08;8.90;;;5.13;;
2177;SDS011;1095;50.992;6.798;2023-08-01T14:00:34;7.45;;;5.07;;
2177;SDS011;1095;50.992;6.798;2023-08-01T14:03:01;12.57;;;5.10;;
2177;SDS011;1095;50.992;6.798;2023-08-01T14:05:29;9.52;;;4.78;;
2177;SDS011;1095;50.992;6.798;2023-08-01T14:07:56;7.45;;;4.90;;
2177;SDS011;1095;50.992;6.798;2023-08-01T14:10:24;9.90;;;5.32;;
2177;SDS011;1095;50.992;6.798;2023-08-01T14:12:51;8.25;;;5.05;;
2177;SDS011;1095;50.992;6.798;2023-08-01T14:15:18;10.00;;;5.20;;
2177;SDS011;1095;50.992;6.798;2023-08-01T14:17:44;7.65;;;5.10;;
2177;SDS011;1095;50.992;6.798;2023-08-01T14:20:11;10.20;;;4.90;;
2177;SDS011;1095;50.992;6.798;2023-08-01T14:22:39;7.40;;;4.10;;
2177;SDS011;1095;50.992;6.798;2023-08-01T14:25:07;7.47;;;4.25;;
2177;SDS011;1095;50.992;6.798;2023-08-01T14:27:35;10.15;;;4.32;;
2177;SDS011;1095;50.992;6.798;2023-08-01T14:30:01;8.00;;;4.13;;
2177;SDS011;1095;50.992;6.798;2023-08-01T14:32:30;14.10;;;5.03;;
2177;SDS011;1095;50.992;6.798;2023-08-01T14:34:57;7.00;;;4.10;;
2177;SDS011;1095;50.992;6.798;2023-08-01T14:37:24;9.20;;;4.57;;
2177;SDS011;1095;50.992;6.798;2023-08-01T14:39:52;8.00;;;4.55;;
2177;SDS011;1095;50.992;6.798;2023-08-01T14:42:19;11.70;;;4.40;;
2177;SDS011;1095;50.992;6.798;2023-08-01T14:44:50;8.43;;;4.18;;
2177;SDS011;1095;50.992;6.798;2023-08-01T14:47:17;6.50;;;4.00;;
2177;SDS011;1095;50.992;6.798;2023-08-01T14:49:44;8.60;;;4.10;;
2177;SDS011;1095;50.992;6.798;2023-08-01T14:52:11;16.75;;;4.32;;
2177;SDS011;1095;50.992;6.798;2023-08-01T14:54:37;7.88;;;3.80;;
2177;SDS011;1095;50.992;6.798;2023-08-01T14:57:05;8.95;;;4.00;;
2177;SDS011;1095;50.992;6.798;2023-08-01T14:59:32;7.05;;;4.00;;
2177;SDS011;1095;50.992;6.798;2023-08-01T15:01:58;9.80;;;3.72;;
2177;SDS011;1095;50.992;6.798;2023-08-01T15:04:25;6.90;;;3.67;;
2177;SDS011;1095;50.992;6.798;2023-08-01T15:06:52;10.40;;;4.60;;
2177;SDS011;1095;50.992;6.798;2023-08-01T15:09:19;7.90;;;3.65;;
2177;SDS011;1095;50.992;6.798;2023-08-01T15:11:45;7.45;;;3.78;;
2177;SDS011;1095;50.992;6.798;2023-08-01T15:14:13;10.88;;;3.85;;